createdAt,value
2023-04-26T00:00:33.916Z,6.70
2023-04-26T00:03:01.061Z,5.60
2023-04-26T00:05:28.498Z,9.70
2023-04-26T00:07:55.492Z,5.20
2023-04-26T00:10:22.593Z,4.30
2023-04-26T00:12:49.608Z,5.50
2023-04-26T00:15:16.571Z,5.10
2023-04-26T00:17:44.070Z,7.20
2023-04-26T00:20:13.105Z,6.60
2023-04-26T00:22:40.881Z,5.60
2023-04-26T00:25:08.768Z,8.40
2023-04-26T00:27:35.812Z,6.10
2023-04-26T00:30:02.852Z,6.10
2023-04-26T00:32:31.032Z,6.40
2023-04-26T00:35:00.052Z,6.60
2023-04-26T00:37:29.513Z,13.00
2023-04-26T00:39:58.304Z,4.50
2023-04-26T00:42:28.277Z,6.10
2023-04-26T00:54:17.145Z,7.10
2023-04-26T00:56:46.660Z,4.70
2023-04-26T00:59:16.642Z,6.30
2023-04-26T01:01:46.682Z,4.50
2023-04-26T01:04:16.381Z,5.30
2023-04-26T01:06:46.717Z,4.80
2023-04-26T01:09:16.781Z,4.80
2023-04-26T01:11:47.218Z,6.80
2023-04-26T01:14:16.701Z,4.50
2023-04-26T01:16:47.739Z,7.20
2023-04-26T01:19:18.697Z,6.70
2023-04-26T01:21:48.689Z,4.30
2023-04-26T01:24:19.682Z,5.80
2023-04-26T01:26:49.720Z,9.20
2023-04-26T01:29:20.673Z,5.20
2023-04-26T01:31:50.772Z,5.50
2023-04-26T01:42:00.415Z,4.70
2023-04-26T01:44:27.443Z,6.10
2023-04-26T01:46:54.300Z,4.30
2023-04-26T01:49:21.159Z,6.10
2023-04-26T01:51:47.979Z,4.80
2023-04-26T01:54:14.779Z,5.00
2023-04-26T01:56:41.590Z,6.90
2023-04-26T01:59:08.404Z,4.80
2023-04-26T02:01:35.309Z,4.90
2023-04-26T02:04:02.702Z,6.60
2023-04-26T02:06:29.506Z,5.40
2023-04-26T02:08:57.029Z,6.30
2023-04-26T02:11:24.760Z,5.80
2023-04-26T02:13:51.879Z,6.10
2023-04-26T02:16:21.476Z,4.30
2023-04-26T02:18:50.254Z,7.10
2023-04-26T02:21:18.740Z,4.90
2023-04-26T02:23:45.967Z,6.80
2023-04-26T02:26:13.516Z,3.70
2023-04-26T02:28:43.604Z,9.10
2023-04-26T02:31:11.371Z,7.80
2023-04-26T02:33:38.440Z,6.20
2023-04-26T02:36:06.404Z,10.00
2023-04-26T02:38:35.345Z,4.20
2023-04-26T02:41:03.582Z,7.70
2023-04-26T02:43:31.126Z,5.90
2023-04-26T02:46:01.460Z,5.70
2023-04-26T02:48:29.373Z,10.40
2023-04-26T02:50:57.398Z,10.30
2023-04-26T02:53:24.777Z,11.60
2023-04-26T02:55:52.209Z,7.70
2023-04-26T02:58:19.069Z,8.40
2023-04-26T03:00:49.004Z,10.00
2023-04-26T03:03:16.976Z,11.00
2023-04-26T03:05:45.172Z,8.20
2023-04-26T03:08:12.408Z,7.80
2023-04-26T03:10:39.239Z,7.80
2023-04-26T03:13:06.259Z,9.70
2023-04-26T03:15:33.296Z,7.90
2023-04-26T03:18:00.383Z,9.00
2023-04-26T03:20:27.768Z,8.40
2023-04-26T03:22:54.996Z,11.40
2023-04-26T03:25:22.108Z,10.90
2023-04-26T03:27:49.013Z,12.90
2023-04-26T03:30:16.051Z,14.00
2023-04-26T03:32:44.324Z,14.60
2023-04-26T03:35:11.514Z,14.20
2023-04-26T03:37:39.950Z,14.80
2023-04-26T03:40:09.628Z,15.60
2023-04-26T03:42:37.711Z,14.00
2023-04-26T03:45:05.449Z,13.00
2023-04-26T03:47:32.356Z,11.90
2023-04-26T03:49:59.235Z,13.60
2023-04-26T03:52:26.084Z,12.60
2023-04-26T03:54:53.234Z,13.90
2023-04-26T03:57:20.122Z,11.30
2023-04-26T03:59:47.021Z,12.40
2023-04-26T04:02:14.009Z,12.80
2023-04-26T04:04:41.399Z,10.30
2023-04-26T04:07:08.946Z,15.60
2023-04-26T04:09:36.163Z,10.10
2023-04-26T04:12:03.909Z,13.00
2023-04-26T04:14:32.601Z,13.50
2023-04-26T04:16:59.837Z,12.50
2023-04-26T04:19:27.781Z,15.50
2023-04-26T04:21:55.272Z,12.00
2023-04-26T04:24:22.418Z,11.30
2023-04-26T04:26:49.247Z,12.30
2023-04-26T04:29:16.788Z,17.20
2023-04-26T04:31:43.992Z,12.70
2023-04-26T04:34:11.125Z,9.30
2023-04-26T04:36:40.881Z,13.70
2023-04-26T04:39:13.664Z,14.40
2023-04-26T04:41:47.619Z,11.30
2023-04-26T04:44:18.345Z,14.10
2023-04-26T04:46:45.332Z,14.80
2023-04-26T04:49:15.068Z,13.80
2023-04-26T04:51:42.247Z,15.30
2023-04-26T04:54:13.096Z,18.50
2023-04-26T04:56:47.606Z,16.80
2023-04-26T04:59:17.735Z,19.90
2023-04-26T05:01:45.418Z,18.40
2023-04-26T05:04:14.620Z,20.10
2023-04-26T05:06:42.274Z,19.40
2023-04-26T05:09:11.668Z,18.70
2023-04-26T05:11:38.727Z,13.90
2023-04-26T05:14:08.058Z,14.70
2023-04-26T05:16:36.119Z,13.40
2023-04-26T05:19:03.495Z,13.20
2023-04-26T05:21:31.718Z,8.40
2023-04-26T05:23:58.682Z,7.70
2023-04-26T05:26:26.475Z,8.80
2023-04-26T05:29:15.887Z,8.20
2023-04-26T05:32:01.509Z,8.80
2023-04-26T05:34:41.604Z,7.40
2023-04-26T05:37:11.654Z,8.50
2023-04-26T05:39:40.097Z,7.20
2023-04-26T05:42:07.357Z,9.00
2023-04-26T05:44:34.238Z,7.70
2023-04-26T05:47:02.076Z,12.90
2023-04-26T05:49:28.945Z,10.80
2023-04-26T05:51:57.776Z,8.40
2023-04-26T05:54:25.080Z,10.20
2023-04-26T05:56:52.642Z,9.70
2023-04-26T05:59:19.830Z,7.40
2023-04-26T06:01:46.745Z,8.60
2023-04-26T06:04:13.722Z,11.20
2023-04-26T06:06:56.734Z,10.30
2023-04-26T06:09:23.763Z,7.30
2023-04-26T06:11:50.713Z,10.10
2023-04-26T06:14:29.212Z,7.00
2023-04-26T06:16:58.874Z,7.30
2023-04-26T06:19:27.630Z,9.70
2023-04-26T06:21:55.587Z,7.50
2023-04-26T06:24:23.659Z,9.80
2023-04-26T06:26:50.505Z,8.90
2023-04-26T06:29:17.734Z,11.10
2023-04-26T06:31:44.556Z,13.80
2023-04-26T06:34:12.556Z,19.00
2023-04-26T06:36:39.395Z,15.90
2023-04-26T06:39:06.416Z,11.30
2023-04-26T06:41:33.560Z,8.40
2023-04-26T06:44:00.547Z,10.90
2023-04-26T06:46:31.166Z,19.90
2023-04-26T06:48:58.060Z,13.90
2023-04-26T06:51:25.246Z,13.20
2023-04-26T06:53:53.074Z,15.50
2023-04-26T06:56:20.160Z,12.20
2023-04-26T06:59:06.321Z,8.60
2023-04-26T07:01:34.793Z,5.50
2023-04-26T07:04:05.055Z,4.90
2023-04-26T07:06:32.160Z,4.30
2023-04-26T07:09:01.216Z,8.40
2023-04-26T07:11:29.336Z,6.80
2023-04-26T07:13:57.156Z,8.80
2023-04-26T07:16:24.215Z,6.50
2023-04-26T07:18:53.087Z,6.70
2023-04-26T07:21:19.928Z,8.30
2023-04-26T07:23:46.708Z,5.30
2023-04-26T07:26:13.664Z,6.80
2023-04-26T07:29:13.668Z,9.40
2023-04-26T07:31:40.738Z,9.10
2023-04-26T07:34:07.659Z,5.60
2023-04-26T07:36:34.484Z,6.20
2023-04-26T07:39:01.928Z,5.50
2023-04-26T07:41:28.898Z,7.80
2023-04-26T07:43:55.959Z,4.60
2023-04-26T07:46:22.840Z,4.00
2023-04-26T07:48:49.906Z,6.40
2023-04-26T07:51:16.809Z,4.90
2023-04-26T07:53:43.697Z,10.20
2023-04-26T07:56:10.669Z,6.30
2023-04-26T07:58:40.821Z,8.60
2023-04-26T08:01:08.800Z,6.50
2023-04-26T08:03:38.974Z,6.20
2023-04-26T08:06:09.230Z,6.90
2023-04-26T08:08:42.949Z,6.00
2023-04-26T08:11:10.840Z,4.40
2023-04-26T08:13:39.125Z,4.50
2023-04-26T08:16:07.253Z,7.00
2023-04-26T08:18:34.037Z,8.80
2023-04-26T08:21:01.525Z,6.00
2023-04-26T08:23:32.151Z,4.70
2023-04-26T08:25:58.962Z,6.30
2023-04-26T08:28:25.850Z,5.50
2023-04-26T08:30:53.140Z,6.80
2023-04-26T08:33:20.050Z,5.00
2023-04-26T08:35:47.503Z,9.20
2023-04-26T08:38:14.488Z,6.10
2023-04-26T08:40:41.299Z,9.30
2023-04-26T08:43:08.870Z,8.30
2023-04-26T08:45:35.643Z,6.70
2023-04-26T08:48:04.964Z,10.00
2023-04-26T08:50:33.587Z,7.90
2023-04-26T08:53:00.431Z,5.90
2023-04-26T08:55:27.252Z,12.40
2023-04-26T08:57:54.051Z,9.90
2023-04-26T09:00:21.651Z,6.20
2023-04-26T09:02:53.969Z,3.70
2023-04-26T09:05:24.923Z,7.20
2023-04-26T09:07:53.253Z,6.70
2023-04-26T09:10:23.207Z,2.10
2023-04-26T09:12:53.794Z,3.80
2023-04-26T09:15:22.710Z,4.80
2023-04-26T09:17:52.811Z,5.50
2023-04-26T09:20:27.872Z,3.80
2023-04-26T09:23:04.751Z,4.80
2023-04-26T09:25:32.017Z,3.10
2023-04-26T09:28:00.404Z,27.10
2023-04-26T09:30:27.882Z,6.80
2023-04-26T09:32:55.987Z,2.80
2023-04-26T09:35:39.209Z,6.30
2023-04-26T09:38:11.022Z,5.80
2023-04-26T09:40:43.005Z,3.40
2023-04-26T09:43:13.356Z,4.60
2023-04-26T09:45:54.247Z,6.20
2023-04-26T09:48:33.184Z,3.60
2023-04-26T09:51:03.120Z,4.90
2023-04-26T09:53:41.727Z,6.20
2023-04-26T09:56:11.673Z,4.10
2023-04-26T09:58:58.395Z,4.10
2023-04-26T10:01:26.589Z,6.50
2023-04-26T10:03:53.879Z,6.20
2023-04-26T10:06:20.940Z,4.40
2023-04-26T10:08:47.736Z,6.60
2023-04-26T10:11:14.607Z,4.50
2023-04-26T10:13:41.941Z,20.40
2023-04-26T10:16:10.074Z,7.10
2023-04-26T10:18:37.600Z,7.80
2023-04-26T10:21:13.159Z,8.70
2023-04-26T10:23:40.053Z,4.50
2023-04-26T10:26:07.670Z,4.40
2023-04-26T10:28:41.469Z,7.10
2023-04-26T10:31:08.333Z,4.70
2023-04-26T10:33:35.175Z,7.40
2023-04-26T10:36:12.633Z,4.60
2023-04-26T10:38:41.119Z,7.50
2023-04-26T10:41:33.204Z,6.00
2023-04-26T10:44:01.879Z,6.80
2023-04-26T10:46:39.722Z,6.30
2023-04-26T10:49:17.159Z,6.30
2023-04-26T10:52:14.955Z,5.00
2023-04-26T10:55:00.190Z,4.90
2023-04-26T10:57:50.471Z,4.30
2023-04-26T11:00:26.807Z,6.50
2023-04-26T11:03:09.031Z,5.20
2023-04-26T11:05:36.355Z,6.00
2023-04-26T11:08:25.578Z,5.80
2023-04-26T11:11:13.522Z,4.00
2023-04-26T11:13:43.844Z,4.60
2023-04-26T11:16:14.913Z,4.40
2023-04-26T11:18:43.260Z,4.00
2023-04-26T11:21:10.415Z,4.20
2023-04-26T11:23:37.710Z,5.50
2023-04-26T11:26:06.597Z,4.90
2023-04-26T11:28:34.711Z,5.00
2023-04-26T11:31:04.460Z,5.30
2023-04-26T11:33:31.562Z,5.30
2023-04-26T11:35:58.506Z,4.50
2023-04-26T11:38:26.873Z,5.50
2023-04-26T11:40:56.089Z,4.50
2023-04-26T11:43:23.041Z,3.50
2023-04-26T11:45:49.895Z,5.70
2023-04-26T11:48:16.817Z,6.20
2023-04-26T11:50:43.783Z,6.70
2023-04-26T11:53:10.661Z,3.70
2023-04-26T11:55:37.516Z,3.60
2023-04-26T11:58:12.662Z,5.30
2023-04-26T12:00:56.693Z,7.10
2023-04-26T12:03:24.750Z,5.30
2023-04-26T12:05:57.868Z,5.30
2023-04-26T12:08:26.141Z,5.40
2023-04-26T12:10:53.354Z,5.00
2023-04-26T12:13:20.454Z,4.00
2023-04-26T12:15:51.493Z,7.40
2023-04-26T12:18:18.376Z,4.10
2023-04-26T12:20:48.124Z,4.00
2023-04-26T12:23:16.677Z,3.40
2023-04-26T12:25:57.571Z,7.30
2023-04-26T12:28:24.562Z,6.50
2023-04-26T12:30:51.443Z,6.30
2023-04-26T12:33:23.030Z,2.60
2023-04-26T12:35:50.882Z,6.20
2023-04-26T12:40:45.979Z,4.50
2023-04-26T12:43:13.005Z,9.20
2023-04-26T12:45:39.891Z,5.50
2023-04-26T12:48:06.878Z,4.40
2023-04-26T12:50:33.940Z,5.30
2023-04-26T12:53:00.831Z,4.60
2023-04-26T12:55:28.573Z,5.50
2023-04-26T12:57:56.283Z,3.70
2023-04-26T13:00:23.164Z,5.90
2023-04-26T13:02:50.195Z,5.70
2023-04-26T13:05:17.106Z,7.30
2023-04-26T13:07:44.914Z,6.20
2023-04-26T13:10:13.133Z,8.40
2023-04-26T13:12:40.343Z,5.40
2023-04-26T13:15:08.248Z,6.50
2023-04-26T13:17:36.325Z,8.10
2023-04-26T13:20:07.131Z,8.80
2023-04-26T13:22:34.210Z,5.20
2023-04-26T13:25:01.108Z,5.20
2023-04-26T13:27:30.482Z,5.20
2023-04-26T13:29:58.645Z,5.50
2023-04-26T13:32:25.772Z,8.90
2023-04-26T13:34:53.409Z,6.10
2023-04-26T13:37:21.494Z,4.80
2023-04-26T13:39:48.662Z,5.70
2023-04-26T13:42:16.559Z,7.30
2023-04-26T13:44:43.528Z,4.30
2023-04-26T13:47:10.401Z,5.20
2023-04-26T13:49:38.849Z,5.30
2023-04-26T13:52:05.630Z,3.60
2023-04-26T13:54:32.555Z,5.90
2023-04-26T13:56:59.437Z,5.30
2023-04-26T13:59:26.967Z,5.60
2023-04-26T14:01:56.370Z,5.30
2023-04-26T14:04:25.850Z,3.80
2023-04-26T14:06:52.954Z,3.70
2023-04-26T14:09:19.795Z,4.70
2023-04-26T14:11:51.599Z,3.80
2023-04-26T14:14:21.313Z,6.40
2023-04-26T14:16:48.141Z,7.00
2023-04-26T14:19:15.903Z,4.90
2023-04-26T14:21:42.751Z,5.30
2023-04-26T14:24:09.588Z,6.30
2023-04-26T14:26:36.599Z,6.10
2023-04-26T14:29:05.096Z,5.10
2023-04-26T14:31:32.760Z,4.50
2023-04-26T14:33:59.708Z,4.70
2023-04-26T14:36:28.112Z,6.50
2023-04-26T14:38:54.998Z,5.20
2023-04-26T14:41:21.780Z,7.60
2023-04-26T14:43:48.848Z,4.80
2023-04-26T14:46:15.716Z,7.50
2023-04-26T14:48:43.950Z,4.10
2023-04-26T14:51:11.316Z,5.70
2023-04-26T14:53:38.858Z,3.30
2023-04-26T14:56:07.673Z,4.90
2023-04-26T14:58:34.688Z,3.60
2023-04-26T15:01:02.591Z,3.90
2023-04-26T15:03:29.814Z,4.90
2023-04-26T15:05:57.206Z,5.00
2023-04-26T15:08:24.073Z,2.60
2023-04-26T15:10:51.573Z,4.70
2023-04-26T15:13:18.845Z,4.00
2023-04-26T15:15:46.100Z,5.80
2023-04-26T15:18:13.150Z,4.50
2023-04-26T15:20:40.981Z,5.70
2023-04-26T15:23:08.576Z,4.90
2023-04-26T15:25:36.996Z,9.60
2023-04-26T15:28:04.079Z,9.00
2023-04-26T15:30:31.013Z,11.90
2023-04-26T15:32:57.984Z,11.90
2023-04-26T15:35:25.240Z,8.40
2023-04-26T15:37:54.108Z,11.20
2023-04-26T15:40:21.920Z,13.20
2023-04-26T15:42:49.411Z,12.10
2023-04-26T15:45:16.699Z,11.60
2023-04-26T15:47:43.518Z,8.40
2023-04-26T15:50:10.876Z,6.30
2023-04-26T15:52:39.291Z,6.50
2023-04-26T15:55:10.560Z,5.80
2023-04-26T15:57:37.770Z,6.90
2023-04-26T16:00:08.591Z,3.50
2023-04-26T16:02:35.734Z,3.70
2023-04-26T16:05:03.131Z,5.80
2023-04-26T16:07:30.504Z,8.70
2023-04-26T16:09:57.340Z,11.60
2023-04-26T16:12:24.276Z,8.90
2023-04-26T16:14:52.061Z,7.10
2023-04-26T16:17:18.817Z,9.00
2023-04-26T16:19:45.957Z,5.20
2023-04-26T16:22:12.782Z,3.30
2023-04-26T16:24:40.254Z,8.40
2023-04-26T16:27:07.132Z,3.30
2023-04-26T16:29:33.928Z,3.50
2023-04-26T16:32:01.045Z,4.20
2023-04-26T16:34:28.308Z,4.60
2023-04-26T16:36:55.109Z,4.40
2023-04-26T16:39:23.321Z,4.00
2023-04-26T16:41:50.160Z,4.00
2023-04-26T16:44:17.024Z,3.70
2023-04-26T16:46:43.951Z,3.10
2023-04-26T16:49:11.029Z,8.30
2023-04-26T16:51:38.225Z,6.80
2023-04-26T16:54:05.162Z,5.10
2023-04-26T16:56:32.453Z,7.10
2023-04-26T16:58:59.698Z,3.40
2023-04-26T17:01:26.882Z,5.00
2023-04-26T17:03:54.202Z,5.30
2023-04-26T17:06:21.314Z,3.80
2023-04-26T17:08:48.127Z,4.40
2023-04-26T17:11:16.306Z,4.50
2023-04-26T17:13:43.438Z,4.70
2023-04-26T17:16:10.531Z,4.70
2023-04-26T17:18:37.487Z,4.70
2023-04-26T17:21:04.861Z,4.80
2023-04-26T17:23:33.633Z,6.00
2023-04-26T17:26:01.571Z,7.90
2023-04-26T17:28:28.723Z,4.40
2023-04-26T17:30:55.639Z,4.80
2023-04-26T17:33:23.021Z,6.00
2023-04-26T17:35:49.839Z,5.50
2023-04-26T17:38:16.727Z,6.10
2023-04-26T17:40:43.528Z,6.70
2023-04-26T17:43:11.403Z,6.40
2023-04-26T17:45:38.471Z,6.30
2023-04-26T17:48:05.707Z,6.10
2023-04-26T17:50:32.722Z,5.90
2023-04-26T17:52:59.639Z,6.30
2023-04-26T17:55:27.041Z,6.60
2023-04-26T17:57:53.884Z,6.30
2023-04-26T18:00:20.856Z,4.70
2023-04-26T18:02:48.818Z,4.80
2023-04-26T18:05:16.591Z,6.70
2023-04-26T18:07:43.461Z,5.60
2023-04-26T18:10:10.431Z,5.90
2023-04-26T18:12:37.306Z,5.80
2023-04-26T18:15:04.509Z,8.30
2023-04-26T18:17:31.844Z,7.00
2023-04-26T18:19:58.920Z,6.00
2023-04-26T18:22:26.169Z,5.30
2023-04-26T18:24:52.978Z,6.70
2023-04-26T18:27:19.795Z,7.30
2023-04-26T18:29:47.853Z,6.40
2023-04-26T18:32:15.290Z,9.80
2023-04-26T18:34:42.144Z,6.70
2023-04-26T18:37:09.486Z,5.90
2023-04-26T18:39:36.423Z,6.20
2023-04-26T18:42:03.674Z,8.70
2023-04-26T18:44:30.510Z,6.40
2023-04-26T18:46:57.405Z,7.70
2023-04-26T18:49:25.061Z,9.70
2023-04-26T18:51:51.921Z,14.00
2023-04-26T18:54:18.705Z,13.60
2023-04-26T18:56:45.642Z,11.70
2023-04-26T18:59:13.082Z,9.80
2023-04-26T19:01:39.979Z,9.60
2023-04-26T19:04:09.153Z,9.30
2023-04-26T19:06:36.298Z,8.40
2023-04-26T19:09:04.655Z,10.70
2023-04-26T19:11:31.610Z,10.70
2023-04-26T19:13:58.583Z,7.50
2023-04-26T19:16:26.065Z,9.80
2023-04-26T19:18:52.991Z,6.20
2023-04-26T19:21:20.060Z,8.80
2023-04-26T19:23:47.112Z,10.40
2023-04-26T19:26:14.128Z,16.80
2023-04-26T19:28:41.121Z,17.40
2023-04-26T19:31:08.102Z,20.70
2023-04-26T19:33:35.334Z,26.30
2023-04-26T19:36:02.516Z,31.00
2023-04-26T19:38:29.481Z,25.60
2023-04-26T19:40:56.338Z,18.60
2023-04-26T19:43:23.202Z,14.70
2023-04-26T19:45:50.197Z,14.70
2023-04-26T19:48:17.130Z,10.70
2023-04-26T19:50:45.360Z,11.70
2023-04-26T20:00:48.037Z,8.30
2023-04-26T20:03:15.075Z,7.80
2023-04-26T20:05:42.171Z,10.20
2023-04-26T20:08:09.222Z,9.70
2023-04-26T20:10:36.158Z,9.70
2023-04-26T20:13:03.115Z,10.60
2023-04-26T20:15:32.216Z,11.80
2023-04-26T20:18:02.317Z,8.90
2023-04-26T20:20:29.343Z,8.40
2023-04-26T20:22:56.420Z,7.70
2023-04-26T20:25:23.634Z,7.10
2023-04-26T20:27:50.636Z,8.80
2023-04-26T20:30:17.516Z,8.00
2023-04-26T20:32:44.409Z,10.10
2023-04-26T20:35:13.854Z,8.20
2023-04-26T20:37:40.861Z,10.30
2023-04-26T20:40:09.385Z,9.80
2023-04-26T20:42:36.584Z,8.70
2023-04-26T20:45:04.021Z,11.00
2023-04-26T20:47:31.298Z,12.80
2023-04-26T20:49:58.135Z,9.20
2023-04-26T20:52:25.211Z,9.30
2023-04-26T20:54:51.965Z,8.20
2023-04-26T20:57:19.101Z,8.80
2023-04-26T20:59:46.820Z,8.60
2023-04-26T21:02:16.215Z,9.00
2023-04-26T21:04:46.509Z,8.80
2023-04-26T21:07:13.498Z,8.60
2023-04-26T21:09:40.465Z,8.90
2023-04-26T21:12:07.582Z,8.30
2023-04-26T21:14:34.464Z,7.50
2023-04-26T21:17:05.581Z,7.80
2023-04-26T21:19:33.059Z,7.10
2023-04-26T21:22:00.864Z,7.40
2023-04-26T21:24:30.271Z,8.30
2023-04-26T21:26:59.331Z,9.90
2023-04-26T21:29:27.676Z,8.70
2023-04-26T21:31:55.317Z,9.40
2023-04-26T21:34:22.399Z,12.10
2023-04-26T21:36:50.528Z,8.80
2023-04-26T21:39:18.375Z,11.30
2023-04-26T21:41:45.333Z,14.80
2023-04-26T21:44:13.309Z,15.80
2023-04-26T21:46:40.298Z,14.30
2023-04-26T21:49:07.422Z,15.90
2023-04-26T21:51:34.492Z,16.10
2023-04-26T21:54:01.409Z,16.10
2023-04-26T21:56:28.198Z,17.30
2023-04-26T21:58:55.241Z,14.20
2023-04-26T22:01:22.476Z,17.00
2023-04-26T22:03:49.720Z,16.30
2023-04-26T22:06:17.122Z,17.50
2023-04-26T22:08:44.161Z,14.50
2023-04-26T22:11:11.101Z,14.90
2023-04-26T22:13:38.143Z,14.70
2023-04-26T22:16:05.734Z,13.70
2023-04-26T22:18:33.138Z,16.40
2023-04-26T22:21:00.578Z,11.50
2023-04-26T22:23:27.553Z,12.10
2023-04-26T22:25:54.430Z,11.90
2023-04-26T22:28:21.345Z,12.10
2023-04-26T22:30:48.525Z,13.10
2023-04-26T22:42:38.834Z,9.30
2023-04-26T22:45:07.250Z,11.30
2023-04-26T22:47:34.378Z,13.00
2023-04-26T22:50:01.538Z,14.50
2023-04-26T22:52:31.754Z,12.70
2023-04-26T22:55:00.096Z,11.80
2023-04-26T22:57:28.782Z,14.90
2023-04-26T22:59:55.632Z,12.20
2023-04-26T23:02:22.630Z,13.20
2023-04-26T23:04:49.652Z,11.70
2023-04-26T23:07:17.131Z,11.20
2023-04-26T23:09:44.033Z,11.00
2023-04-26T23:12:10.904Z,13.50
2023-04-26T23:14:37.894Z,12.20
2023-04-26T23:17:05.634Z,11.20
2023-04-26T23:19:33.270Z,13.20
2023-04-26T23:22:00.229Z,11.70
2023-04-26T23:24:27.339Z,10.30
2023-04-26T23:26:54.317Z,10.30
2023-04-26T23:29:21.922Z,10.00
2023-04-26T23:31:49.282Z,9.90
2023-04-26T23:34:16.835Z,11.20
2023-04-26T23:36:43.821Z,10.50
2023-04-26T23:39:11.547Z,12.20
2023-04-26T23:41:38.568Z,11.70
2023-04-26T23:44:05.789Z,11.90
2023-04-26T23:46:32.892Z,11.60
2023-04-26T23:48:59.866Z,11.60
2023-04-26T23:51:27.828Z,11.50
2023-04-26T23:53:54.984Z,11.80
2023-04-26T23:56:22.354Z,11.30
2023-04-26T23:58:49.749Z,11.90
